sensor_id;sensor_type;location;lat;lon;timestamp;temperature;humidity
7518;DHT22;3800;48.922;9.444;2023-12-20T00:01:48;5.80;99.90
7518;DHT22;3800;48.922;9.444;2023-12-20T00:04:17;5.80;99.90
7518;DHT22;3800;48.922;9.444;2023-12-20T00:06:45;5.80;99.90
7518;DHT22;3800;48.922;9.444;2023-12-20T00:09:14;5.80;99.90
7518;DHT22;3800;48.922;9.444;2023-12-20T00:11:43;5.80;99.90
7518;DHT22;3800;48.922;9.444;2023-12-20T00:14:11;5.80;99.90
7518;DHT22;3800;48.922;9.444;2023-12-20T00:16:39;5.90;99.90
7518;DHT22;3800;48.922;9.444;2023-12-20T00:19:07;5.80;99.90
7518;DHT22;3800;48.922;9.444;2023-12-20T00:21:36;5.80;99.90
7518;DHT22;3800;48.922;9.444;2023-12-20T00:24:05;5.80;99.90
7518;DHT22;3800;48.922;9.444;2023-12-20T00:26:34;5.80;99.90
7518;DHT22;3800;48.922;9.444;2023-12-20T00:29:02;5.80;99.90
7518;DHT22;3800;48.922;9.444;2023-12-20T00:31:30;5.70;99.90
7518;DHT22;3800;48.922;9.444;2023-12-20T00:33:59;5.70;99.90
7518;DHT22;3800;48.922;9.444;2023-12-20T00:36:27;5.70;99.90
7518;DHT22;3800;48.922;9.444;2023-12-20T00:38:56;5.60;99.90
7518;DHT22;3800;48.922;9.444;2023-12-20T00:41:24;5.50;99.90
7518;DHT22;3800;48.922;9.444;2023-12-20T00:43:52;5.40;99.90
7518;DHT22;3800;48.922;9.444;2023-12-20T00:46:21;5.30;99.90
7518;DHT22;3800;48.922;9.444;2023-12-20T00:48:49;5.30;99.90
7518;DHT22;3800;48.922;9.444;2023-12-20T00:51:18;5.30;99.90
7518;DHT22;3800;48.922;9.444;2023-12-20T00:53:46;5.30;99.90
7518;DHT22;3800;48.922;9.444;2023-12-20T00:56:14;5.20;99.90
7518;DHT22;3800;48.922;9.444;2023-12-20T00:58:43;5.20;99.90
7518;DHT22;3800;48.922;9.444;2023-12-20T01:01:12;5.10;99.90
7518;DHT22;3800;48.922;9.444;2023-12-20T01:03:41;5.10;99.90
7518;DHT22;3800;48.922;9.444;2023-12-20T01:06:09;5.00;99.90
7518;DHT22;3800;48.922;9.444;2023-12-20T01:08:40;5.00;99.90
7518;DHT22;3800;48.922;9.444;2023-12-20T01:11:09;5.00;99.90
7518;DHT22;3800;48.922;9.444;2023-12-20T01:13:37;5.00;99.90
7518;DHT22;3800;48.922;9.444;2023-12-20T01:16:05;5.00;99.90
7518;DHT22;3800;48.922;9.444;2023-12-20T01:18:33;5.00;99.90
7518;DHT22;3800;48.922;9.444;2023-12-20T01:21:03;5.00;99.90
7518;DHT22;3800;48.922;9.444;2023-12-20T01:23:32;5.00;99.90
7518;DHT22;3800;48.922;9.444;2023-12-20T01:25:59;4.90;99.90
7518;DHT22;3800;48.922;9.444;2023-12-20T01:28:28;4.90;99.90
7518;DHT22;3800;48.922;9.444;2023-12-20T01:30:57;4.90;99.90
7518;DHT22;3800;48.922;9.444;2023-12-20T01:33:26;4.80;99.90
7518;DHT22;3800;48.922;9.444;2023-12-20T01:35:54;4.80;99.90
7518;DHT22;3800;48.922;9.444;2023-12-20T01:38:22;4.80;99.90
7518;DHT22;3800;48.922;9.444;2023-12-20T01:40:51;4.80;99.90
7518;DHT22;3800;48.922;9.444;2023-12-20T01:43:19;4.70;99.90
7518;DHT22;3800;48.922;9.444;2023-12-20T01:45:48;4.70;99.90
7518;DHT22;3800;48.922;9.444;2023-12-20T01:48:16;4.70;99.90
7518;DHT22;3800;48.922;9.444;2023-12-20T01:50:44;4.70;99.90
7518;DHT22;3800;48.922;9.444;2023-12-20T01:53:13;4.70;99.90
7518;DHT22;3800;48.922;9.444;2023-12-20T01:55:43;4.70;99.90
7518;DHT22;3800;48.922;9.444;2023-12-20T01:58:12;4.70;99.90
7518;DHT22;3800;48.922;9.444;2023-12-20T02:00:40;4.70;99.90
7518;DHT22;3800;48.922;9.444;2023-12-20T02:03:09;4.70;99.90
7518;DHT22;3800;48.922;9.444;2023-12-20T02:05:38;4.70;99.90
7518;DHT22;3800;48.922;9.444;2023-12-20T02:08:07;4.70;99.90
7518;DHT22;3800;48.922;9.444;2023-12-20T02:10:36;4.70;99.90
7518;DHT22;3800;48.922;9.444;2023-12-20T02:13:04;4.70;99.90
7518;DHT22;3800;48.922;9.444;2023-12-20T02:15:32;4.70;99.90
7518;DHT22;3800;48.922;9.444;2023-12-20T02:18:00;4.70;99.90
7518;DHT22;3800;48.922;9.444;2023-12-20T02:20:29;4.70;99.90
7518;DHT22;3800;48.922;9.444;2023-12-20T02:22:57;4.70;99.90
7518;DHT22;3800;48.922;9.444;2023-12-20T02:25:25;4.70;99.90
7518;DHT22;3800;48.922;9.444;2023-12-20T02:27:54;4.70;99.90
7518;DHT22;3800;48.922;9.444;2023-12-20T02:30:22;4.80;99.90
7518;DHT22;3800;48.922;9.444;2023-12-20T02:32:50;4.80;99.90
7518;DHT22;3800;48.922;9.444;2023-12-20T02:35:18;4.80;99.90
7518;DHT22;3800;48.922;9.444;2023-12-20T02:37:47;4.80;99.90
7518;DHT22;3800;48.922;9.444;2023-12-20T02:40:15;4.80;99.90
7518;DHT22;3800;48.922;9.444;2023-12-20T02:42:43;4.80;99.90
7518;DHT22;3800;48.922;9.444;2023-12-20T02:45:12;4.80;99.90
7518;DHT22;3800;48.922;9.444;2023-12-20T02:47:40;4.80;99.90
7518;DHT22;3800;48.922;9.444;2023-12-20T02:50:09;4.80;99.90
7518;DHT22;3800;48.922;9.444;2023-12-20T02:52:37;4.80;99.90
7518;DHT22;3800;48.922;9.444;2023-12-20T02:55:05;4.80;99.90
7518;DHT22;3800;48.922;9.444;2023-12-20T02:57:34;4.80;99.90
7518;DHT22;3800;48.922;9.444;2023-12-20T03:00:02;4.90;99.90
7518;DHT22;3800;48.922;9.444;2023-12-20T03:02:30;4.90;99.90
7518;DHT22;3800;48.922;9.444;2023-12-20T03:04:59;5.00;99.90
7518;DHT22;3800;48.922;9.444;2023-12-20T03:07:27;5.00;99.90
7518;DHT22;3800;48.922;9.444;2023-12-20T03:09:55;5.00;99.90
7518;DHT22;3800;48.922;9.444;2023-12-20T03:12:24;5.00;99.90
7518;DHT22;3800;48.922;9.444;2023-12-20T03:14:53;5.00;99.90
7518;DHT22;3800;48.922;9.444;2023-12-20T03:17:21;5.00;99.90
7518;DHT22;3800;48.922;9.444;2023-12-20T03:19:49;5.00;99.90
7518;DHT22;3800;48.922;9.444;2023-12-20T03:22:18;5.00;99.90
7518;DHT22;3800;48.922;9.444;2023-12-20T03:24:46;5.00;99.90
7518;DHT22;3800;48.922;9.444;2023-12-20T03:27:15;5.00;99.90
7518;DHT22;3800;48.922;9.444;2023-12-20T03:29:43;5.00;99.90
7518;DHT22;3800;48.922;9.444;2023-12-20T03:32:11;5.10;99.90
7518;DHT22;3800;48.922;9.444;2023-12-20T03:34:41;5.10;99.90
7518;DHT22;3800;48.922;9.444;2023-12-20T03:37:10;5.10;99.90
7518;DHT22;3800;48.922;9.444;2023-12-20T03:39:38;5.10;99.90
7518;DHT22;3800;48.922;9.444;2023-12-20T03:42:06;5.10;99.90
7518;DHT22;3800;48.922;9.444;2023-12-20T03:44:38;5.10;99.90
7518;DHT22;3800;48.922;9.444;2023-12-20T03:47:04;5.10;99.90
7518;DHT22;3800;48.922;9.444;2023-12-20T03:49:33;5.10;99.90
7518;DHT22;3800;48.922;9.444;2023-12-20T03:52:03;5.10;99.90
7518;DHT22;3800;48.922;9.444;2023-12-20T03:54:31;5.10;99.90
7518;DHT22;3800;48.922;9.444;2023-12-20T03:57:00;5.10;99.90
7518;DHT22;3800;48.922;9.444;2023-12-20T03:59:28;5.10;99.90
7518;DHT22;3800;48.922;9.444;2023-12-20T04:01:57;5.10;99.90
7518;DHT22;3800;48.922;9.444;2023-12-20T04:04:25;5.10;99.90
7518;DHT22;3800;48.922;9.444;2023-12-20T04:06:54;5.00;99.90
7518;DHT22;3800;48.922;9.444;2023-12-20T04:09:22;5.10;99.90
7518;DHT22;3800;48.922;9.444;2023-12-20T04:11:50;5.00;99.90
7518;DHT22;3800;48.922;9.444;2023-12-20T04:14:19;5.00;99.90
7518;DHT22;3800;48.922;9.444;2023-12-20T04:16:48;5.00;99.90
7518;DHT22;3800;48.922;9.444;2023-12-20T04:19:16;5.00;99.90
7518;DHT22;3800;48.922;9.444;2023-12-20T04:21:44;5.00;99.90
7518;DHT22;3800;48.922;9.444;2023-12-20T04:24:13;5.00;99.90
7518;DHT22;3800;48.922;9.444;2023-12-20T04:26:41;5.00;99.90
7518;DHT22;3800;48.922;9.444;2023-12-20T04:29:10;5.00;99.90
7518;DHT22;3800;48.922;9.444;2023-12-20T04:31:38;4.90;99.90
7518;DHT22;3800;48.922;9.444;2023-12-20T04:34:06;4.90;99.90
7518;DHT22;3800;48.922;9.444;2023-12-20T04:36:34;4.90;99.90
7518;DHT22;3800;48.922;9.444;2023-12-20T04:39:04;4.90;99.90
7518;DHT22;3800;48.922;9.444;2023-12-20T04:41:32;4.90;99.90
7518;DHT22;3800;48.922;9.444;2023-12-20T04:44:01;4.80;99.90
7518;DHT22;3800;48.922;9.444;2023-12-20T04:46:29;4.80;99.90
7518;DHT22;3800;48.922;9.444;2023-12-20T04:48:57;4.80;99.90
7518;DHT22;3800;48.922;9.444;2023-12-20T04:51:26;4.80;99.90
7518;DHT22;3800;48.922;9.444;2023-12-20T04:53:54;4.80;99.90
7518;DHT22;3800;48.922;9.444;2023-12-20T04:56:24;4.80;99.90
7518;DHT22;3800;48.922;9.444;2023-12-20T04:58:52;4.80;99.90
7518;DHT22;3800;48.922;9.444;2023-12-20T05:01:21;4.90;99.90
7518;DHT22;3800;48.922;9.444;2023-12-20T05:03:49;5.10;99.90
7518;DHT22;3800;48.922;9.444;2023-12-20T05:06:18;5.10;99.90
7518;DHT22;3800;48.922;9.444;2023-12-20T05:08:47;5.00;99.90
7518;DHT22;3800;48.922;9.444;2023-12-20T05:11:16;5.00;99.90
7518;DHT22;3800;48.922;9.444;2023-12-20T05:13:45;5.00;99.90
7518;DHT22;3800;48.922;9.444;2023-12-20T05:16:13;5.00;99.90
7518;DHT22;3800;48.922;9.444;2023-12-20T05:18:41;5.00;99.90
7518;DHT22;3800;48.922;9.444;2023-12-20T05:21:10;5.00;99.90
7518;DHT22;3800;48.922;9.444;2023-12-20T05:23:39;5.00;99.90
7518;DHT22;3800;48.922;9.444;2023-12-20T05:26:07;5.00;99.90
7518;DHT22;3800;48.922;9.444;2023-12-20T05:28:35;5.00;99.90
7518;DHT22;3800;48.922;9.444;2023-12-20T05:31:04;5.00;99.90
7518;DHT22;3800;48.922;9.444;2023-12-20T05:33:33;5.00;99.90
7518;DHT22;3800;48.922;9.444;2023-12-20T05:36:03;5.00;99.90
7518;DHT22;3800;48.922;9.444;2023-12-20T05:38:33;5.00;99.90
7518;DHT22;3800;48.922;9.444;2023-12-20T05:41:01;5.00;99.90
7518;DHT22;3800;48.922;9.444;2023-12-20T05:43:30;5.00;99.90
7518;DHT22;3800;48.922;9.444;2023-12-20T05:45:58;5.00;99.90
7518;DHT22;3800;48.922;9.444;2023-12-20T05:48:27;5.00;99.90
7518;DHT22;3800;48.922;9.444;2023-12-20T05:50:55;5.10;99.90
7518;DHT22;3800;48.922;9.444;2023-12-20T05:53:24;5.10;99.90
7518;DHT22;3800;48.922;9.444;2023-12-20T05:55:52;5.10;99.90
7518;DHT22;3800;48.922;9.444;2023-12-20T05:58:22;5.10;99.90
7518;DHT22;3800;48.922;9.444;2023-12-20T06:00:50;5.10;99.90
7518;DHT22;3800;48.922;9.444;2023-12-20T06:03:18;5.10;99.90
7518;DHT22;3800;48.922;9.444;2023-12-20T06:05:47;5.10;99.90
7518;DHT22;3800;48.922;9.444;2023-12-20T06:08:16;5.10;99.90
7518;DHT22;3800;48.922;9.444;2023-12-20T06:10:44;5.10;99.90
7518;DHT22;3800;48.922;9.444;2023-12-20T06:13:13;5.10;99.90
7518;DHT22;3800;48.922;9.444;2023-12-20T06:15:41;5.10;99.90
7518;DHT22;3800;48.922;9.444;2023-12-20T06:18:09;5.10;99.90
7518;DHT22;3800;48.922;9.444;2023-12-20T06:20:37;5.10;99.90
7518;DHT22;3800;48.922;9.444;2023-12-20T06:23:06;5.20;99.90
7518;DHT22;3800;48.922;9.444;2023-12-20T06:25:34;5.20;99.90
7518;DHT22;3800;48.922;9.444;2023-12-20T06:28:02;5.20;99.90
7518;DHT22;3800;48.922;9.444;2023-12-20T06:30:32;5.20;99.90
7518;DHT22;3800;48.922;9.444;2023-12-20T06:33:00;5.10;99.90
7518;DHT22;3800;48.922;9.444;2023-12-20T06:35:29;5.20;99.90
7518;DHT22;3800;48.922;9.444;2023-12-20T06:37:57;5.20;99.90
7518;DHT22;3800;48.922;9.444;2023-12-20T06:40:25;5.20;99.90
7518;DHT22;3800;48.922;9.444;2023-12-20T06:42:53;5.20;99.90
7518;DHT22;3800;48.922;9.444;2023-12-20T06:45:22;5.20;99.90
7518;DHT22;3800;48.922;9.444;2023-12-20T06:47:51;5.20;99.90
7518;DHT22;3800;48.922;9.444;2023-12-20T06:50:20;5.20;99.90
7518;DHT22;3800;48.922;9.444;2023-12-20T06:52:49;5.20;99.90
7518;DHT22;3800;48.922;9.444;2023-12-20T06:55:17;5.20;99.90
7518;DHT22;3800;48.922;9.444;2023-12-20T06:57:45;5.20;99.90
7518;DHT22;3800;48.922;9.444;2023-12-20T07:00:15;5.30;99.90
7518;DHT22;3800;48.922;9.444;2023-12-20T07:02:44;5.30;99.90
7518;DHT22;3800;48.922;9.444;2023-12-20T07:05:12;5.30;99.90
7518;DHT22;3800;48.922;9.444;2023-12-20T07:07:41;5.30;99.90
7518;DHT22;3800;48.922;9.444;2023-12-20T07:10:10;5.30;99.90
7518;DHT22;3800;48.922;9.444;2023-12-20T07:12:38;5.30;99.90
7518;DHT22;3800;48.922;9.444;2023-12-20T07:15:08;5.30;99.90
7518;DHT22;3800;48.922;9.444;2023-12-20T07:17:37;5.30;99.90
7518;DHT22;3800;48.922;9.444;2023-12-20T07:20:07;5.30;99.90
7518;DHT22;3800;48.922;9.444;2023-12-20T07:22:35;5.30;99.90
7518;DHT22;3800;48.922;9.444;2023-12-20T07:25:04;5.30;99.90
7518;DHT22;3800;48.922;9.444;2023-12-20T07:27:32;5.30;99.90
7518;DHT22;3800;48.922;9.444;2023-12-20T07:30:01;5.40;99.90
7518;DHT22;3800;48.922;9.444;2023-12-20T07:32:30;5.40;99.90
7518;DHT22;3800;48.922;9.444;2023-12-20T07:34:59;5.30;99.90
7518;DHT22;3800;48.922;9.444;2023-12-20T07:37:27;5.30;99.90
7518;DHT22;3800;48.922;9.444;2023-12-20T07:39:56;5.30;99.90
7518;DHT22;3800;48.922;9.444;2023-12-20T07:42:24;5.30;99.90
7518;DHT22;3800;48.922;9.444;2023-12-20T07:44:52;5.30;99.90
7518;DHT22;3800;48.922;9.444;2023-12-20T07:47:21;5.30;99.90
7518;DHT22;3800;48.922;9.444;2023-12-20T07:49:49;5.30;99.90
7518;DHT22;3800;48.922;9.444;2023-12-20T07:52:18;5.30;99.90
7518;DHT22;3800;48.922;9.444;2023-12-20T07:54:46;5.30;99.90
7518;DHT22;3800;48.922;9.444;2023-12-20T07:57:14;5.30;99.90
7518;DHT22;3800;48.922;9.444;2023-12-20T07:59:42;5.30;99.90
7518;DHT22;3800;48.922;9.444;2023-12-20T08:02:10;5.30;99.90
7518;DHT22;3800;48.922;9.444;2023-12-20T08:04:39;5.30;99.90
7518;DHT22;3800;48.922;9.444;2023-12-20T08:07:07;5.30;99.90
7518;DHT22;3800;48.922;9.444;2023-12-20T08:09:35;5.30;99.90
7518;DHT22;3800;48.922;9.444;2023-12-20T08:12:05;5.30;99.90
7518;DHT22;3800;48.922;9.444;2023-12-20T08:14:33;5.30;99.90
7518;DHT22;3800;48.922;9.444;2023-12-20T08:17:02;5.30;99.90
7518;DHT22;3800;48.922;9.444;2023-12-20T08:19:30;5.30;99.90
7518;DHT22;3800;48.922;9.444;2023-12-20T08:21:59;5.20;99.90
7518;DHT22;3800;48.922;9.444;2023-12-20T08:24:27;5.20;99.90
7518;DHT22;3800;48.922;9.444;2023-12-20T08:26:56;5.10;99.90
7518;DHT22;3800;48.922;9.444;2023-12-20T08:29:26;5.10;99.90
7518;DHT22;3800;48.922;9.444;2023-12-20T08:31:55;5.10;99.90
7518;DHT22;3800;48.922;9.444;2023-12-20T08:34:24;5.10;99.90
7518;DHT22;3800;48.922;9.444;2023-12-20T08:36:53;5.10;99.90
7518;DHT22;3800;48.922;9.444;2023-12-20T08:39:21;5.10;99.90
7518;DHT22;3800;48.922;9.444;2023-12-20T08:41:49;5.10;99.90
7518;DHT22;3800;48.922;9.444;2023-12-20T08:44:18;5.40;99.90
7518;DHT22;3800;48.922;9.444;2023-12-20T08:46:47;5.30;99.90
7518;DHT22;3800;48.922;9.444;2023-12-20T08:49:15;5.20;99.90
7518;DHT22;3800;48.922;9.444;2023-12-20T08:51:44;5.10;99.90
7518;DHT22;3800;48.922;9.444;2023-12-20T08:54:14;5.00;99.90
7518;DHT22;3800;48.922;9.444;2023-12-20T08:56:42;5.00;99.90
7518;DHT22;3800;48.922;9.444;2023-12-20T08:59:11;5.00;99.90
7518;DHT22;3800;48.922;9.444;2023-12-20T09:01:40;4.90;99.90
7518;DHT22;3800;48.922;9.444;2023-12-20T09:04:10;4.90;99.90
7518;DHT22;3800;48.922;9.444;2023-12-20T09:06:39;4.90;99.90
7518;DHT22;3800;48.922;9.444;2023-12-20T09:09:07;4.80;99.90
7518;DHT22;3800;48.922;9.444;2023-12-20T09:11:37;4.70;99.90
7518;DHT22;3800;48.922;9.444;2023-12-20T09:14:05;4.70;99.90
7518;DHT22;3800;48.922;9.444;2023-12-20T09:16:33;4.70;99.90
7518;DHT22;3800;48.922;9.444;2023-12-20T09:19:02;4.80;99.90
7518;DHT22;3800;48.922;9.444;2023-12-20T09:21:30;4.80;99.90
7518;DHT22;3800;48.922;9.444;2023-12-20T09:23:58;4.80;99.90
7518;DHT22;3800;48.922;9.444;2023-12-20T09:26:27;4.80;99.90
7518;DHT22;3800;48.922;9.444;2023-12-20T09:28:55;4.80;99.90
7518;DHT22;3800;48.922;9.444;2023-12-20T09:31:23;4.80;99.90
7518;DHT22;3800;48.922;9.444;2023-12-20T09:33:52;4.90;99.90
7518;DHT22;3800;48.922;9.444;2023-12-20T09:36:20;4.90;99.90
7518;DHT22;3800;48.922;9.444;2023-12-20T09:38:50;5.00;99.90
7518;DHT22;3800;48.922;9.444;2023-12-20T09:41:19;4.90;99.90
7518;DHT22;3800;48.922;9.444;2023-12-20T09:43:47;5.00;99.90
7518;DHT22;3800;48.922;9.444;2023-12-20T09:46:17;5.00;99.90
7518;DHT22;3800;48.922;9.444;2023-12-20T09:48:45;5.00;99.90
7518;DHT22;3800;48.922;9.444;2023-12-20T09:51:15;5.20;99.90
7518;DHT22;3800;48.922;9.444;2023-12-20T09:53:43;5.10;99.90
7518;DHT22;3800;48.922;9.444;2023-12-20T09:56:13;5.40;99.90
7518;DHT22;3800;48.922;9.444;2023-12-20T09:58:42;5.40;99.90
7518;DHT22;3800;48.922;9.444;2023-12-20T10:01:10;5.40;99.90
7518;DHT22;3800;48.922;9.444;2023-12-20T10:03:39;5.40;99.90
7518;DHT22;3800;48.922;9.444;2023-12-20T10:06:08;5.30;99.90
7518;DHT22;3800;48.922;9.444;2023-12-20T10:08:38;5.40;99.90
7518;DHT22;3800;48.922;9.444;2023-12-20T10:11:06;5.40;99.90
7518;DHT22;3800;48.922;9.444;2023-12-20T10:13:38;5.40;99.90
7518;DHT22;3800;48.922;9.444;2023-12-20T10:16:07;5.40;99.90
7518;DHT22;3800;48.922;9.444;2023-12-20T10:18:35;5.40;99.90
7518;DHT22;3800;48.922;9.444;2023-12-20T10:21:03;5.50;99.90
7518;DHT22;3800;48.922;9.444;2023-12-20T10:23:32;5.50;99.90
7518;DHT22;3800;48.922;9.444;2023-12-20T10:26:00;5.60;99.90
7518;DHT22;3800;48.922;9.444;2023-12-20T10:28:32;5.70;99.90
7518;DHT22;3800;48.922;9.444;2023-12-20T10:30:56;5.80;99.90
7518;DHT22;3800;48.922;9.444;2023-12-20T10:33:25;5.90;99.90
7518;DHT22;3800;48.922;9.444;2023-12-20T10:35:57;5.90;99.90
7518;DHT22;3800;48.922;9.444;2023-12-20T10:38:25;6.00;99.90
7518;DHT22;3800;48.922;9.444;2023-12-20T10:40:56;6.00;99.90
7518;DHT22;3800;48.922;9.444;2023-12-20T10:43:24;6.00;99.90
7518;DHT22;3800;48.922;9.444;2023-12-20T10:45:52;6.00;99.90
7518;DHT22;3800;48.922;9.444;2023-12-20T10:48:21;6.00;99.90
7518;DHT22;3800;48.922;9.444;2023-12-20T10:50:48;6.00;99.90
7518;DHT22;3800;48.922;9.444;2023-12-20T10:53:18;5.90;99.90
7518;DHT22;3800;48.922;9.444;2023-12-20T10:55:46;5.80;99.90
7518;DHT22;3800;48.922;9.444;2023-12-20T10:58:15;5.80;99.90
7518;DHT22;3800;48.922;9.444;2023-12-20T11:00:43;5.70;99.90
7518;DHT22;3800;48.922;9.444;2023-12-20T11:03:12;5.70;99.90
7518;DHT22;3800;48.922;9.444;2023-12-20T11:05:49;5.60;99.90
7518;DHT22;3800;48.922;9.444;2023-12-20T11:08:22;5.70;99.90
7518;DHT22;3800;48.922;9.444;2023-12-20T11:10:54;5.70;99.90
7518;DHT22;3800;48.922;9.444;2023-12-20T11:13:37;5.80;99.90
7518;DHT22;3800;48.922;9.444;2023-12-20T11:16:04;5.90;99.90
7518;DHT22;3800;48.922;9.444;2023-12-20T11:18:33;5.90;99.90
7518;DHT22;3800;48.922;9.444;2023-12-20T11:21:02;6.00;99.90
7518;DHT22;3800;48.922;9.444;2023-12-20T11:23:31;6.10;99.90
7518;DHT22;3800;48.922;9.444;2023-12-20T11:25:59;6.10;99.90
7518;DHT22;3800;48.922;9.444;2023-12-20T11:28:27;6.00;99.90
7518;DHT22;3800;48.922;9.444;2023-12-20T11:30:58;6.00;99.90
7518;DHT22;3800;48.922;9.444;2023-12-20T11:33:30;6.00;99.90
7518;DHT22;3800;48.922;9.444;2023-12-20T11:35:59;6.10;99.90
7518;DHT22;3800;48.922;9.444;2023-12-20T11:38:27;6.00;99.90
7518;DHT22;3800;48.922;9.444;2023-12-20T11:40:56;6.10;99.90
7518;DHT22;3800;48.922;9.444;2023-12-20T11:43:30;6.10;99.90
7518;DHT22;3800;48.922;9.444;2023-12-20T11:46:04;6.00;99.90
7518;DHT22;3800;48.922;9.444;2023-12-20T11:48:33;6.00;99.90
7518;DHT22;3800;48.922;9.444;2023-12-20T11:51:01;6.00;99.90
7518;DHT22;3800;48.922;9.444;2023-12-20T11:53:30;6.00;99.90
7518;DHT22;3800;48.922;9.444;2023-12-20T11:55:58;5.90;99.90
7518;DHT22;3800;48.922;9.444;2023-12-20T11:58:26;5.90;99.90
7518;DHT22;3800;48.922;9.444;2023-12-20T12:00:55;5.80;99.90
7518;DHT22;3800;48.922;9.444;2023-12-20T12:03:23;5.70;99.90
7518;DHT22;3800;48.922;9.444;2023-12-20T12:05:51;5.70;99.90
7518;DHT22;3800;48.922;9.444;2023-12-20T12:08:20;5.70;99.90
7518;DHT22;3800;48.922;9.444;2023-12-20T12:10:48;5.70;99.90
7518;DHT22;3800;48.922;9.444;2023-12-20T12:13:17;5.70;99.90
7518;DHT22;3800;48.922;9.444;2023-12-20T12:15:45;5.60;99.90
7518;DHT22;3800;48.922;9.444;2023-12-20T12:18:16;5.60;99.90
7518;DHT22;3800;48.922;9.444;2023-12-20T12:20:43;5.60;99.90
7518;DHT22;3800;48.922;9.444;2023-12-20T12:23:12;5.60;99.90
7518;DHT22;3800;48.922;9.444;2023-12-20T12:25:40;5.60;99.90
7518;DHT22;3800;48.922;9.444;2023-12-20T12:28:11;5.70;99.90
7518;DHT22;3800;48.922;9.444;2023-12-20T12:30:39;5.70;99.90
7518;DHT22;3800;48.922;9.444;2023-12-20T12:33:08;5.70;99.90
7518;DHT22;3800;48.922;9.444;2023-12-20T12:35:37;5.70;99.90
7518;DHT22;3800;48.922;9.444;2023-12-20T12:38:06;5.70;99.90
7518;DHT22;3800;48.922;9.444;2023-12-20T12:40:35;5.80;99.90
7518;DHT22;3800;48.922;9.444;2023-12-20T12:43:04;5.80;99.90
7518;DHT22;3800;48.922;9.444;2023-12-20T12:45:33;5.80;99.90
7518;DHT22;3800;48.922;9.444;2023-12-20T12:48:01;5.80;99.90
7518;DHT22;3800;48.922;9.444;2023-12-20T12:50:30;5.80;99.90
7518;DHT22;3800;48.922;9.444;2023-12-20T12:52:58;5.80;99.90
7518;DHT22;3800;48.922;9.444;2023-12-20T12:55:26;5.80;99.90
7518;DHT22;3800;48.922;9.444;2023-12-20T12:57:55;5.80;99.90
7518;DHT22;3800;48.922;9.444;2023-12-20T13:00:23;5.80;99.90
7518;DHT22;3800;48.922;9.444;2023-12-20T13:02:51;5.80;99.90
7518;DHT22;3800;48.922;9.444;2023-12-20T13:05:21;5.80;99.90
7518;DHT22;3800;48.922;9.444;2023-12-20T13:07:49;5.80;99.90
7518;DHT22;3800;48.922;9.444;2023-12-20T13:10:18;5.80;99.90
7518;DHT22;3800;48.922;9.444;2023-12-20T13:12:46;5.80;99.90
7518;DHT22;3800;48.922;9.444;2023-12-20T13:15:14;5.80;99.90
7518;DHT22;3800;48.922;9.444;2023-12-20T13:17:42;5.80;99.90
7518;DHT22;3800;48.922;9.444;2023-12-20T13:20:11;5.80;99.90
7518;DHT22;3800;48.922;9.444;2023-12-20T13:22:40;5.80;99.90
7518;DHT22;3800;48.922;9.444;2023-12-20T13:25:08;5.80;99.90
7518;DHT22;3800;48.922;9.444;2023-12-20T13:27:37;5.80;99.90
7518;DHT22;3800;48.922;9.444;2023-12-20T13:30:06;5.80;99.90
7518;DHT22;3800;48.922;9.444;2023-12-20T13:32:35;5.80;99.90
7518;DHT22;3800;48.922;9.444;2023-12-20T13:35:03;5.80;99.90
7518;DHT22;3800;48.922;9.444;2023-12-20T13:37:32;5.80;99.90
7518;DHT22;3800;48.922;9.444;2023-12-20T13:40:01;5.70;99.90
7518;DHT22;3800;48.922;9.444;2023-12-20T13:42:29;5.70;99.90
7518;DHT22;3800;48.922;9.444;2023-12-20T13:44:57;5.70;99.90
7518;DHT22;3800;48.922;9.444;2023-12-20T13:47:26;5.70;99.90
7518;DHT22;3800;48.922;9.444;2023-12-20T13:49:55;5.70;99.90
7518;DHT22;3800;48.922;9.444;2023-12-20T13:52:23;5.70;99.90
7518;DHT22;3800;48.922;9.444;2023-12-20T13:54:52;5.70;99.90
7518;DHT22;3800;48.922;9.444;2023-12-20T13:57:21;5.70;99.90
7518;DHT22;3800;48.922;9.444;2023-12-20T13:59:49;5.70;99.90
7518;DHT22;3800;48.922;9.444;2023-12-20T14:02:17;5.70;99.90
7518;DHT22;3800;48.922;9.444;2023-12-20T14:04:46;5.60;99.90
7518;DHT22;3800;48.922;9.444;2023-12-20T14:07:15;5.60;99.90
7518;DHT22;3800;48.922;9.444;2023-12-20T14:09:43;5.60;99.90
7518;DHT22;3800;48.922;9.444;2023-12-20T14:12:11;5.50;99.90
7518;DHT22;3800;48.922;9.444;2023-12-20T14:14:41;5.50;99.90
7518;DHT22;3800;48.922;9.444;2023-12-20T14:17:11;5.50;99.90
7518;DHT22;3800;48.922;9.444;2023-12-20T14:19:39;5.40;99.90
7518;DHT22;3800;48.922;9.444;2023-12-20T14:22:08;5.40;99.90
7518;DHT22;3800;48.922;9.444;2023-12-20T14:24:37;5.30;99.90
7518;DHT22;3800;48.922;9.444;2023-12-20T14:27:05;5.30;99.90
7518;DHT22;3800;48.922;9.444;2023-12-20T14:29:35;5.20;99.90
7518;DHT22;3800;48.922;9.444;2023-12-20T14:32:03;5.20;99.90
7518;DHT22;3800;48.922;9.444;2023-12-20T14:34:33;5.10;99.90
7518;DHT22;3800;48.922;9.444;2023-12-20T14:37:02;5.10;99.90
7518;DHT22;3800;48.922;9.444;2023-12-20T14:39:31;5.10;99.90
7518;DHT22;3800;48.922;9.444;2023-12-20T14:42:01;5.10;99.90
7518;DHT22;3800;48.922;9.444;2023-12-20T14:44:29;5.00;99.90
7518;DHT22;3800;48.922;9.444;2023-12-20T14:46:57;5.00;99.90
7518;DHT22;3800;48.922;9.444;2023-12-20T14:49:26;5.00;99.90
7518;DHT22;3800;48.922;9.444;2023-12-20T14:51:55;5.00;99.90
7518;DHT22;3800;48.922;9.444;2023-12-20T14:54:23;5.00;99.90
7518;DHT22;3800;48.922;9.444;2023-12-20T14:56:52;5.00;99.90
7518;DHT22;3800;48.922;9.444;2023-12-20T14:59:20;4.90;99.90
7518;DHT22;3800;48.922;9.444;2023-12-20T15:01:49;4.90;99.90
7518;DHT22;3800;48.922;9.444;2023-12-20T15:04:17;4.80;99.90
7518;DHT22;3800;48.922;9.444;2023-12-20T15:06:46;4.80;99.90
7518;DHT22;3800;48.922;9.444;2023-12-20T15:09:17;4.80;99.90
7518;DHT22;3800;48.922;9.444;2023-12-20T15:11:45;4.80;99.90
7518;DHT22;3800;48.922;9.444;2023-12-20T15:14:14;4.80;99.90
7518;DHT22;3800;48.922;9.444;2023-12-20T15:16:42;4.90;99.90
7518;DHT22;3800;48.922;9.444;2023-12-20T15:19:10;4.90;99.90
7518;DHT22;3800;48.922;9.444;2023-12-20T15:21:39;4.90;99.90
7518;DHT22;3800;48.922;9.444;2023-12-20T15:24:09;4.80;99.90
7518;DHT22;3800;48.922;9.444;2023-12-20T15:26:40;4.90;99.90
7518;DHT22;3800;48.922;9.444;2023-12-20T15:29:08;4.80;99.90
7518;DHT22;3800;48.922;9.444;2023-12-20T15:31:41;4.80;99.90
7518;DHT22;3800;48.922;9.444;2023-12-20T15:34:11;4.80;99.90
7518;DHT22;3800;48.922;9.444;2023-12-20T15:36:41;4.90;99.90
7518;DHT22;3800;48.922;9.444;2023-12-20T15:39:09;4.90;99.90
7518;DHT22;3800;48.922;9.444;2023-12-20T15:41:38;4.80;99.90
7518;DHT22;3800;48.922;9.444;2023-12-20T15:44:07;4.80;99.90
7518;DHT22;3800;48.922;9.444;2023-12-20T15:46:35;4.70;99.90
7518;DHT22;3800;48.922;9.444;2023-12-20T15:49:04;4.70;99.90
7518;DHT22;3800;48.922;9.444;2023-12-20T15:51:32;4.70;99.90
7518;DHT22;3800;48.922;9.444;2023-12-20T15:54:01;4.70;99.90
7518;DHT22;3800;48.922;9.444;2023-12-20T15:56:30;4.70;99.90
7518;DHT22;3800;48.922;9.444;2023-12-20T15:58:58;4.70;99.90
7518;DHT22;3800;48.922;9.444;2023-12-20T16:01:28;4.70;99.90
7518;DHT22;3800;48.922;9.444;2023-12-20T16:03:56;4.70;99.90
7518;DHT22;3800;48.922;9.444;2023-12-20T16:06:24;4.60;99.90
7518;DHT22;3800;48.922;9.444;2023-12-20T16:08:53;4.60;99.90
7518;DHT22;3800;48.922;9.444;2023-12-20T16:11:21;4.60;99.90
7518;DHT22;3800;48.922;9.444;2023-12-20T16:13:50;4.60;99.90
7518;DHT22;3800;48.922;9.444;2023-12-20T16:16:18;4.60;99.90
7518;DHT22;3800;48.922;9.444;2023-12-20T16:18:47;4.60;99.90
7518;DHT22;3800;48.922;9.444;2023-12-20T16:21:15;4.50;99.90
7518;DHT22;3800;48.922;9.444;2023-12-20T16:23:43;4.60;99.90
7518;DHT22;3800;48.922;9.444;2023-12-20T16:26:12;4.60;99.90